sensor_id;sensor_type;location;lat;lon;timestamp;P1;durP1;ratioP1;P2;durP2;ratioP2
52494;SDS011;38405;53.212;5.660;2023-04-21T00:00:50;27.23;;;19.40;;
52494;SDS011;38405;53.212;5.660;2023-04-21T00:03:17;28.80;;;19.67;;
52494;SDS011;38405;53.212;5.660;2023-04-21T00:05:44;31.45;;;20.73;;
52494;SDS011;38405;53.212;5.660;2023-04-21T00:08:10;26.13;;;17.25;;
52494;SDS011;38405;53.212;5.660;2023-04-21T00:10:35;32.58;;;21.33;;
52494;SDS011;38405;53.212;5.660;2023-04-21T00:13:01;30.55;;;21.45;;
52494;SDS011;38405;53.212;5.660;2023-04-21T00:15:27;30.58;;;19.63;;
52494;SDS011;38405;53.212;5.660;2023-04-21T00:17:52;34.10;;;21.63;;
52494;SDS011;38405;53.212;5.660;2023-04-21T00:20:18;34.03;;;20.70;;
52494;SDS011;38405;53.212;5.660;2023-04-21T00:22:44;30.50;;;19.83;;
52494;SDS011;38405;53.212;5.660;2023-04-21T00:25:09;26.05;;;18.58;;
52494;SDS011;38405;53.212;5.660;2023-04-21T00:27:35;30.33;;;18.00;;
52494;SDS011;38405;53.212;5.660;2023-04-21T00:30:01;33.03;;;20.15;;
52494;SDS011;38405;53.212;5.660;2023-04-21T00:32:26;27.75;;;19.30;;
52494;SDS011;38405;53.212;5.660;2023-04-21T00:34:52;30.20;;;18.45;;
52494;SDS011;38405;53.212;5.660;2023-04-21T00:37:18;31.25;;;17.92;;
52494;SDS011;38405;53.212;5.660;2023-04-21T00:39:43;26.38;;;15.63;;
52494;SDS011;38405;53.212;5.660;2023-04-21T00:42:09;28.27;;;16.92;;
52494;SDS011;38405;53.212;5.660;2023-04-21T00:44:35;26.85;;;17.35;;
52494;SDS011;38405;53.212;5.660;2023-04-21T00:47:01;26.42;;;16.77;;
52494;SDS011;38405;53.212;5.660;2023-04-21T00:49:26;34.38;;;16.98;;
52494;SDS011;38405;53.212;5.660;2023-04-21T00:51:52;24.33;;;15.65;;
52494;SDS011;38405;53.212;5.660;2023-04-21T00:54:18;27.75;;;16.27;;
52494;SDS011;38405;53.212;5.660;2023-04-21T00:56:47;33.00;;;16.60;;
52494;SDS011;38405;53.212;5.660;2023-04-21T00:59:13;25.98;;;17.23;;
52494;SDS011;38405;53.212;5.660;2023-04-21T01:01:39;31.40;;;16.85;;
52494;SDS011;38405;53.212;5.660;2023-04-21T01:04:05;27.98;;;15.52;;
52494;SDS011;38405;53.212;5.660;2023-04-21T01:06:31;24.38;;;17.35;;
52494;SDS011;38405;53.212;5.660;2023-04-21T01:08:58;27.48;;;18.25;;
52494;SDS011;38405;53.212;5.660;2023-04-21T01:11:24;26.65;;;15.38;;
52494;SDS011;38405;53.212;5.660;2023-04-21T01:13:53;31.33;;;16.15;;
52494;SDS011;38405;53.212;5.660;2023-04-21T01:16:19;22.95;;;13.73;;
52494;SDS011;38405;53.212;5.660;2023-04-21T01:18:46;31.55;;;16.77;;
52494;SDS011;38405;53.212;5.660;2023-04-21T01:21:11;27.65;;;17.08;;
52494;SDS011;38405;53.212;5.660;2023-04-21T01:23:41;25.77;;;15.73;;
52494;SDS011;38405;53.212;5.660;2023-04-21T01:26:08;27.20;;;17.42;;
52494;SDS011;38405;53.212;5.660;2023-04-21T01:28:34;30.38;;;17.55;;
52494;SDS011;38405;53.212;5.660;2023-04-21T01:31:00;25.38;;;17.23;;
52494;SDS011;38405;53.212;5.660;2023-04-21T01:33:26;27.15;;;16.95;;
52494;SDS011;38405;53.212;5.660;2023-04-21T01:35:52;27.17;;;16.27;;
52494;SDS011;38405;53.212;5.660;2023-04-21T01:38:19;29.80;;;16.25;;
52494;SDS011;38405;53.212;5.660;2023-04-21T01:40:49;27.33;;;16.30;;
52494;SDS011;38405;53.212;5.660;2023-04-21T01:43:17;28.80;;;18.85;;
52494;SDS011;38405;53.212;5.660;2023-04-21T01:45:45;25.38;;;15.57;;
52494;SDS011;38405;53.212;5.660;2023-04-21T01:48:12;29.85;;;15.85;;
52494;SDS011;38405;53.212;5.660;2023-04-21T01:50:37;32.67;;;18.75;;
52494;SDS011;38405;53.212;5.660;2023-04-21T01:53:06;28.23;;;15.90;;
52494;SDS011;38405;53.212;5.660;2023-04-21T01:55:32;33.50;;;16.23;;
52494;SDS011;38405;53.212;5.660;2023-04-21T01:57:57;29.00;;;17.77;;
52494;SDS011;38405;53.212;5.660;2023-04-21T02:00:24;27.10;;;16.27;;
52494;SDS011;38405;53.212;5.660;2023-04-21T02:02:50;28.13;;;17.90;;
52494;SDS011;38405;53.212;5.660;2023-04-21T02:05:16;24.70;;;16.50;;
52494;SDS011;38405;53.212;5.660;2023-04-21T02:07:42;29.20;;;18.20;;
52494;SDS011;38405;53.212;5.660;2023-04-21T02:10:10;26.10;;;15.05;;
52494;SDS011;38405;53.212;5.660;2023-04-21T02:12:36;32.13;;;17.88;;
52494;SDS011;38405;53.212;5.660;2023-04-21T02:15:02;21.55;;;14.48;;
52494;SDS011;38405;53.212;5.660;2023-04-21T02:17:28;28.08;;;17.20;;
52494;SDS011;38405;53.212;5.660;2023-04-21T02:19:54;29.58;;;17.17;;
52494;SDS011;38405;53.212;5.660;2023-04-21T02:22:20;26.27;;;16.45;;
52494;SDS011;38405;53.212;5.660;2023-04-21T02:24:47;28.00;;;16.98;;
52494;SDS011;38405;53.212;5.660;2023-04-21T02:27:13;30.45;;;16.08;;
52494;SDS011;38405;53.212;5.660;2023-04-21T02:29:38;27.50;;;16.48;;
52494;SDS011;38405;53.212;5.660;2023-04-21T02:32:07;28.02;;;17.70;;
52494;SDS011;38405;53.212;5.660;2023-04-21T02:34:33;30.58;;;16.67;;
52494;SDS011;38405;53.212;5.660;2023-04-21T02:36:58;29.10;;;17.73;;
52494;SDS011;38405;53.212;5.660;2023-04-21T02:39:24;24.73;;;15.05;;
52494;SDS011;38405;53.212;5.660;2023-04-21T02:41:50;25.80;;;16.20;;
52494;SDS011;38405;53.212;5.660;2023-04-21T02:44:16;27.77;;;16.58;;
52494;SDS011;38405;53.212;5.660;2023-04-21T02:46:41;30.50;;;17.10;;
52494;SDS011;38405;53.212;5.660;2023-04-21T02:49:08;26.83;;;17.10;;
52494;SDS011;38405;53.212;5.660;2023-04-21T02:51:34;27.10;;;16.50;;
52494;SDS011;38405;53.212;5.660;2023-04-21T02:53:59;27.05;;;16.92;;
52494;SDS011;38405;53.212;5.660;2023-04-21T02:56:25;25.63;;;16.13;;
52494;SDS011;38405;53.212;5.660;2023-04-21T02:58:51;28.42;;;16.58;;
52494;SDS011;38405;53.212;5.660;2023-04-21T03:01:16;26.08;;;16.95;;
52494;SDS011;38405;53.212;5.660;2023-04-21T03:03:42;24.55;;;16.15;;
52494;SDS011;38405;53.212;5.660;2023-04-21T03:06:08;24.90;;;17.13;;
52494;SDS011;38405;53.212;5.660;2023-04-21T03:08:33;31.60;;;16.30;;
52494;SDS011;38405;53.212;5.660;2023-04-21T03:10:59;25.02;;;17.15;;
52494;SDS011;38405;53.212;5.660;2023-04-21T03:13:25;27.33;;;17.38;;
52494;SDS011;38405;53.212;5.660;2023-04-21T03:15:53;32.00;;;16.85;;
52494;SDS011;38405;53.212;5.660;2023-04-21T03:18:19;29.67;;;17.67;;
52494;SDS011;38405;53.212;5.660;2023-04-21T03:20:45;26.45;;;15.63;;
52494;SDS011;38405;53.212;5.660;2023-04-21T03:23:10;24.35;;;17.20;;
52494;SDS011;38405;53.212;5.660;2023-04-21T03:25:37;24.10;;;15.57;;
52494;SDS011;38405;53.212;5.660;2023-04-21T03:28:03;26.40;;;15.98;;
52494;SDS011;38405;53.212;5.660;2023-04-21T03:30:28;26.45;;;17.70;;
52494;SDS011;38405;53.212;5.660;2023-04-21T03:32:54;29.08;;;16.95;;
52494;SDS011;38405;53.212;5.660;2023-04-21T03:35:20;29.70;;;16.95;;
52494;SDS011;38405;53.212;5.660;2023-04-21T03:37:46;25.60;;;17.23;;
52494;SDS011;38405;53.212;5.660;2023-04-21T03:40:13;29.48;;;17.83;;
52494;SDS011;38405;53.212;5.660;2023-04-21T03:42:39;27.70;;;17.65;;
52494;SDS011;38405;53.212;5.660;2023-04-21T03:45:05;25.88;;;17.23;;
52494;SDS011;38405;53.212;5.660;2023-04-21T03:47:32;26.80;;;18.30;;
52494;SDS011;38405;53.212;5.660;2023-04-21T03:49:58;25.33;;;17.77;;
52494;SDS011;38405;53.212;5.660;2023-04-21T03:52:23;28.38;;;16.10;;
52494;SDS011;38405;53.212;5.660;2023-04-21T03:54:49;30.02;;;18.15;;
52494;SDS011;38405;53.212;5.660;2023-04-21T03:57:15;29.45;;;18.55;;
52494;SDS011;38405;53.212;5.660;2023-04-21T03:59:41;25.92;;;17.02;;
52494;SDS011;38405;53.212;5.660;2023-04-21T04:02:07;21.33;;;15.02;;
52494;SDS011;38405;53.212;5.660;2023-04-21T04:04:33;28.27;;;16.35;;
52494;SDS011;38405;53.212;5.660;2023-04-21T04:07:01;27.60;;;17.02;;
52494;SDS011;38405;53.212;5.660;2023-04-21T04:09:27;23.90;;;16.00;;
52494;SDS011;38405;53.212;5.660;2023-04-21T04:11:53;25.55;;;16.35;;
52494;SDS011;38405;53.212;5.660;2023-04-21T04:14:19;31.65;;;17.58;;
52494;SDS011;38405;53.212;5.660;2023-04-21T04:16:44;28.38;;;16.88;;
52494;SDS011;38405;53.212;5.660;2023-04-21T04:19:13;21.83;;;15.93;;
52494;SDS011;38405;53.212;5.660;2023-04-21T04:21:39;22.95;;;14.93;;
52494;SDS011;38405;53.212;5.660;2023-04-21T04:24:05;28.02;;;16.55;;
52494;SDS011;38405;53.212;5.660;2023-04-21T04:26:32;25.50;;;15.63;;
52494;SDS011;38405;53.212;5.660;2023-04-21T04:28:58;26.58;;;15.73;;
52494;SDS011;38405;53.212;5.660;2023-04-21T04:31:26;22.55;;;15.88;;
52494;SDS011;38405;53.212;5.660;2023-04-21T04:33:58;22.77;;;14.52;;
52494;SDS011;38405;53.212;5.660;2023-04-21T04:36:23;24.95;;;16.17;;
52494;SDS011;38405;53.212;5.660;2023-04-21T04:38:49;27.83;;;16.05;;
52494;SDS011;38405;53.212;5.660;2023-04-21T04:41:15;22.67;;;15.25;;
52494;SDS011;38405;53.212;5.660;2023-04-21T04:43:41;23.23;;;14.70;;
52494;SDS011;38405;53.212;5.660;2023-04-21T04:46:08;26.45;;;15.35;;
52494;SDS011;38405;53.212;5.660;2023-04-21T04:48:36;21.95;;;13.90;;
52494;SDS011;38405;53.212;5.660;2023-04-21T04:51:02;21.83;;;14.20;;
52494;SDS011;38405;53.212;5.660;2023-04-21T04:53:28;24.40;;;14.95;;
52494;SDS011;38405;53.212;5.660;2023-04-21T04:55:54;20.80;;;13.70;;
52494;SDS011;38405;53.212;5.660;2023-04-21T04:58:21;23.17;;;14.45;;
52494;SDS011;38405;53.212;5.660;2023-04-21T05:00:47;23.20;;;13.23;;
52494;SDS011;38405;53.212;5.660;2023-04-21T05:03:12;22.13;;;13.57;;
52494;SDS011;38405;53.212;5.660;2023-04-21T05:05:38;22.02;;;13.90;;
52494;SDS011;38405;53.212;5.660;2023-04-21T05:08:04;19.85;;;13.43;;
52494;SDS011;38405;53.212;5.660;2023-04-21T05:10:29;20.13;;;13.05;;
52494;SDS011;38405;53.212;5.660;2023-04-21T05:12:55;26.65;;;14.30;;
52494;SDS011;38405;53.212;5.660;2023-04-21T05:15:21;23.83;;;14.07;;
52494;SDS011;38405;53.212;5.660;2023-04-21T05:17:47;19.48;;;13.35;;
52494;SDS011;38405;53.212;5.660;2023-04-21T05:20:13;24.88;;;14.55;;
52494;SDS011;38405;53.212;5.660;2023-04-21T05:22:38;23.17;;;13.60;;
52494;SDS011;38405;53.212;5.660;2023-04-21T05:25:05;18.55;;;12.65;;
52494;SDS011;38405;53.212;5.660;2023-04-21T05:27:31;18.23;;;12.43;;
52494;SDS011;38405;53.212;5.660;2023-04-21T05:29:58;22.90;;;13.23;;
52494;SDS011;38405;53.212;5.660;2023-04-21T05:32:24;23.42;;;12.75;;
52494;SDS011;38405;53.212;5.660;2023-04-21T05:34:50;17.55;;;11.85;;
52494;SDS011;38405;53.212;5.660;2023-04-21T05:37:16;18.95;;;12.50;;
52494;SDS011;38405;53.212;5.660;2023-04-21T05:39:42;17.25;;;12.32;;
52494;SDS011;38405;53.212;5.660;2023-04-21T05:42:10;23.92;;;12.35;;
52494;SDS011;38405;53.212;5.660;2023-04-21T05:44:36;20.20;;;11.15;;
52494;SDS011;38405;53.212;5.660;2023-04-21T05:47:03;25.58;;;11.52;;
52494;SDS011;38405;53.212;5.660;2023-04-21T05:49:29;17.75;;;11.80;;
52494;SDS011;38405;53.212;5.660;2023-04-21T05:51:55;17.13;;;11.40;;
52494;SDS011;38405;53.212;5.660;2023-04-21T05:54:20;17.27;;;11.40;;
52494;SDS011;38405;53.212;5.660;2023-04-21T05:56:46;18.83;;;12.52;;
52494;SDS011;38405;53.212;5.660;2023-04-21T05:59:12;15.18;;;10.85;;
52494;SDS011;38405;53.212;5.660;2023-04-21T06:01:38;20.80;;;12.35;;
52494;SDS011;38405;53.212;5.660;2023-04-21T06:04:04;18.55;;;11.68;;
52494;SDS011;38405;53.212;5.660;2023-04-21T06:06:29;22.45;;;12.13;;
52494;SDS011;38405;53.212;5.660;2023-04-21T06:08:55;18.13;;;11.77;;
52494;SDS011;38405;53.212;5.660;2023-04-21T06:11:21;20.40;;;11.95;;
52494;SDS011;38405;53.212;5.660;2023-04-21T06:13:48;18.88;;;11.50;;
52494;SDS011;38405;53.212;5.660;2023-04-21T06:16:14;19.98;;;12.23;;
52494;SDS011;38405;53.212;5.660;2023-04-21T06:18:40;16.73;;;10.98;;
52494;SDS011;38405;53.212;5.660;2023-04-21T06:21:05;18.73;;;11.98;;
52494;SDS011;38405;53.212;5.660;2023-04-21T06:23:31;18.77;;;11.05;;
52494;SDS011;38405;53.212;5.660;2023-04-21T06:26:00;20.38;;;11.88;;
52494;SDS011;38405;53.212;5.660;2023-04-21T06:28:33;25.70;;;12.13;;
52494;SDS011;38405;53.212;5.660;2023-04-21T06:31:03;22.38;;;11.27;;
52494;SDS011;38405;53.212;5.660;2023-04-21T06:33:29;19.08;;;11.07;;
52494;SDS011;38405;53.212;5.660;2023-04-21T06:35:55;20.52;;;11.18;;
52494;SDS011;38405;53.212;5.660;2023-04-21T06:38:20;19.30;;;11.13;;
52494;SDS011;38405;53.212;5.660;2023-04-21T06:40:46;19.75;;;11.32;;
52494;SDS011;38405;53.212;5.660;2023-04-21T06:43:12;19.38;;;11.13;;
52494;SDS011;38405;53.212;5.660;2023-04-21T06:45:38;18.17;;;11.70;;
52494;SDS011;38405;53.212;5.660;2023-04-21T06:48:04;19.63;;;10.82;;
52494;SDS011;38405;53.212;5.660;2023-04-21T06:50:32;17.52;;;9.63;;
52494;SDS011;38405;53.212;5.660;2023-04-21T06:52:58;21.65;;;10.38;;
52494;SDS011;38405;53.212;5.660;2023-04-21T06:55:24;17.80;;;10.57;;
52494;SDS011;38405;53.212;5.660;2023-04-21T06:57:50;21.63;;;10.80;;
52494;SDS011;38405;53.212;5.660;2023-04-21T07:00:15;17.90;;;10.35;;
52494;SDS011;38405;53.212;5.660;2023-04-21T07:02:41;18.50;;;10.18;;
52494;SDS011;38405;53.212;5.660;2023-04-21T07:05:07;15.73;;;9.70;;
52494;SDS011;38405;53.212;5.660;2023-04-21T07:07:33;16.23;;;10.02;;
52494;SDS011;38405;53.212;5.660;2023-04-21T07:09:58;15.00;;;9.23;;
52494;SDS011;38405;53.212;5.660;2023-04-21T07:12:24;17.70;;;9.43;;
52494;SDS011;38405;53.212;5.660;2023-04-21T07:14:49;16.58;;;9.60;;
52494;SDS011;38405;53.212;5.660;2023-04-21T07:17:15;14.48;;;8.88;;
52494;SDS011;38405;53.212;5.660;2023-04-21T07:19:41;15.80;;;8.95;;
52494;SDS011;38405;53.212;5.660;2023-04-21T07:22:06;17.98;;;9.15;;
52494;SDS011;38405;53.212;5.660;2023-04-21T07:24:32;15.50;;;8.75;;
52494;SDS011;38405;53.212;5.660;2023-04-21T07:26:59;23.95;;;9.30;;
52494;SDS011;38405;53.212;5.660;2023-04-21T07:29:26;13.82;;;9.15;;
52494;SDS011;38405;53.212;5.660;2023-04-21T07:31:52;15.68;;;9.63;;
52494;SDS011;38405;53.212;5.660;2023-04-21T07:34:19;14.68;;;8.70;;
52494;SDS011;38405;53.212;5.660;2023-04-21T07:36:44;16.48;;;9.30;;
52494;SDS011;38405;53.212;5.660;2023-04-21T07:39:10;16.75;;;9.27;;
52494;SDS011;38405;53.212;5.660;2023-04-21T07:41:36;15.27;;;9.38;;
52494;SDS011;38405;53.212;5.660;2023-04-21T07:44:01;13.77;;;8.95;;
52494;SDS011;38405;53.212;5.660;2023-04-21T07:46:27;13.90;;;8.82;;
52494;SDS011;38405;53.212;5.660;2023-04-21T07:48:54;15.85;;;9.32;;
52494;SDS011;38405;53.212;5.660;2023-04-21T07:51:21;14.02;;;8.82;;
52494;SDS011;38405;53.212;5.660;2023-04-21T07:53:47;12.82;;;9.35;;
52494;SDS011;38405;53.212;5.660;2023-04-21T07:56:16;14.30;;;9.55;;
52494;SDS011;38405;53.212;5.660;2023-04-21T07:58:41;20.98;;;9.50;;
52494;SDS011;38405;53.212;5.660;2023-04-21T08:01:07;16.83;;;8.73;;
52494;SDS011;38405;53.212;5.660;2023-04-21T08:03:36;14.48;;;8.98;;
52494;SDS011;38405;53.212;5.660;2023-04-21T08:06:01;17.38;;;8.65;;
52494;SDS011;38405;53.212;5.660;2023-04-21T08:08:27;16.50;;;9.60;;
52494;SDS011;38405;53.212;5.660;2023-04-21T08:10:53;18.50;;;10.15;;
52494;SDS011;38405;53.212;5.660;2023-04-21T08:13:19;15.82;;;9.27;;
52494;SDS011;38405;53.212;5.660;2023-04-21T08:15:49;17.08;;;10.20;;
52494;SDS011;38405;53.212;5.660;2023-04-21T08:18:18;16.95;;;9.60;;
52494;SDS011;38405;53.212;5.660;2023-04-21T08:20:44;17.40;;;10.05;;
52494;SDS011;38405;53.212;5.660;2023-04-21T08:23:12;16.17;;;9.27;;
52494;SDS011;38405;53.212;5.660;2023-04-21T08:25:38;15.65;;;9.75;;
52494;SDS011;38405;53.212;5.660;2023-04-21T08:28:03;14.10;;;8.90;;
52494;SDS011;38405;53.212;5.660;2023-04-21T08:30:29;14.98;;;10.00;;
52494;SDS011;38405;53.212;5.660;2023-04-21T08:32:55;15.48;;;9.75;;
52494;SDS011;38405;53.212;5.660;2023-04-21T08:35:21;16.90;;;10.10;;
52494;SDS011;38405;53.212;5.660;2023-04-21T08:37:46;21.65;;;9.52;;
52494;SDS011;38405;53.212;5.660;2023-04-21T08:40:15;13.75;;;9.82;;
52494;SDS011;38405;53.212;5.660;2023-04-21T08:42:42;18.30;;;8.75;;
52494;SDS011;38405;53.212;5.660;2023-04-21T08:45:08;15.23;;;9.63;;
52494;SDS011;38405;53.212;5.660;2023-04-21T08:47:33;17.63;;;8.93;;
52494;SDS011;38405;53.212;5.660;2023-04-21T08:50:02;11.73;;;8.90;;
52494;SDS011;38405;53.212;5.660;2023-04-21T08:52:28;17.83;;;9.65;;
52494;SDS011;38405;53.212;5.660;2023-04-21T08:54:57;17.27;;;9.70;;
52494;SDS011;38405;53.212;5.660;2023-04-21T08:57:23;16.08;;;9.50;;
52494;SDS011;38405;53.212;5.660;2023-04-21T08:59:48;14.10;;;10.00;;
52494;SDS011;38405;53.212;5.660;2023-04-21T09:02:14;20.40;;;9.40;;
52494;SDS011;38405;53.212;5.660;2023-04-21T09:04:49;13.20;;;8.88;;
52494;SDS011;38405;53.212;5.660;2023-04-21T09:07:34;16.13;;;8.98;;
52494;SDS011;38405;53.212;5.660;2023-04-21T09:10:01;15.50;;;9.02;;
52494;SDS011;38405;53.212;5.660;2023-04-21T09:12:29;16.45;;;9.07;;
52494;SDS011;38405;53.212;5.660;2023-04-21T09:14:55;13.90;;;8.82;;
52494;SDS011;38405;53.212;5.660;2023-04-21T09:17:26;13.43;;;8.60;;
52494;SDS011;38405;53.212;5.660;2023-04-21T09:19:56;17.65;;;9.15;;
52494;SDS011;38405;53.212;5.660;2023-04-21T09:22:25;13.35;;;8.38;;
52494;SDS011;38405;53.212;5.660;2023-04-21T09:24:56;17.80;;;9.48;;
52494;SDS011;38405;53.212;5.660;2023-04-21T09:27:24;14.77;;;9.45;;
52494;SDS011;38405;53.212;5.660;2023-04-21T09:29:49;17.73;;;9.10;;
52494;SDS011;38405;53.212;5.660;2023-04-21T09:32:16;14.00;;;8.80;;
52494;SDS011;38405;53.212;5.660;2023-04-21T09:34:43;17.65;;;8.73;;
52494;SDS011;38405;53.212;5.660;2023-04-21T09:37:10;16.30;;;9.30;;
52494;SDS011;38405;53.212;5.660;2023-04-21T09:39:37;18.48;;;9.30;;
52494;SDS011;38405;53.212;5.660;2023-04-21T09:42:03;17.45;;;9.02;;
52494;SDS011;38405;53.212;5.660;2023-04-21T09:44:31;14.90;;;8.88;;
52494;SDS011;38405;53.212;5.660;2023-04-21T09:46:59;12.13;;;8.63;;
52494;SDS011;38405;53.212;5.660;2023-04-21T09:49:28;11.35;;;7.55;;
52494;SDS011;38405;53.212;5.660;2023-04-21T09:51:58;15.93;;;9.27;;
52494;SDS011;38405;53.212;5.660;2023-04-21T09:54:31;16.98;;;8.82;;
52494;SDS011;38405;53.212;5.660;2023-04-21T09:56:58;15.80;;;8.73;;
52494;SDS011;38405;53.212;5.660;2023-04-21T09:59:44;18.05;;;9.20;;
52494;SDS011;38405;53.212;5.660;2023-04-21T10:02:11;18.98;;;9.48;;
52494;SDS011;38405;53.212;5.660;2023-04-21T10:04:38;14.23;;;8.48;;
52494;SDS011;38405;53.212;5.660;2023-04-21T10:07:05;13.05;;;8.50;;
52494;SDS011;38405;53.212;5.660;2023-04-21T10:09:39;16.75;;;8.85;;
52494;SDS011;38405;53.212;5.660;2023-04-21T10:12:09;13.38;;;8.13;;
52494;SDS011;38405;53.212;5.660;2023-04-21T10:14:35;15.52;;;8.70;;
52494;SDS011;38405;53.212;5.660;2023-04-21T10:17:06;15.77;;;8.80;;
52494;SDS011;38405;53.212;5.660;2023-04-21T10:19:33;13.50;;;8.60;;
52494;SDS011;38405;53.212;5.660;2023-04-21T10:22:06;15.88;;;8.73;;
52494;SDS011;38405;53.212;5.660;2023-04-21T10:24:39;13.40;;;8.98;;
52494;SDS011;38405;53.212;5.660;2023-04-21T10:27:10;16.75;;;8.75;;
52494;SDS011;38405;53.212;5.660;2023-04-21T10:29:36;18.30;;;9.75;;
52494;SDS011;38405;53.212;5.660;2023-04-21T10:32:05;14.35;;;8.85;;
52494;SDS011;38405;53.212;5.660;2023-04-21T10:34:36;15.70;;;8.90;;
52494;SDS011;38405;53.212;5.660;2023-04-21T10:39:44;12.77;;;8.65;;
52494;SDS011;38405;53.212;5.660;2023-04-21T10:50:12;16.10;;;9.10;;
52494;SDS011;38405;53.212;5.660;2023-04-21T10:52:54;23.50;;;9.30;;
52494;SDS011;38405;53.212;5.660;2023-04-21T10:55:25;11.77;;;8.07;;
52494;SDS011;38405;53.212;5.660;2023-04-21T10:57:51;16.17;;;8.70;;
52494;SDS011;38405;53.212;5.660;2023-04-21T11:00:20;11.13;;;7.85;;
52494;SDS011;38405;53.212;5.660;2023-04-21T11:02:57;16.13;;;8.98;;
52494;SDS011;38405;53.212;5.660;2023-04-21T11:05:32;19.73;;;8.52;;
52494;SDS011;38405;53.212;5.660;2023-04-21T11:08:09;16.60;;;8.68;;
52494;SDS011;38405;53.212;5.660;2023-04-21T11:10:53;16.77;;;9.30;;
52494;SDS011;38405;53.212;5.660;2023-04-21T11:13:23;16.90;;;8.32;;
52494;SDS011;38405;53.212;5.660;2023-04-21T11:15:57;12.25;;;8.55;;
52494;SDS011;38405;53.212;5.660;2023-04-21T11:18:58;11.80;;;8.35;;
52494;SDS011;38405;53.212;5.660;2023-04-21T11:21:17;14.73;;;8.80;;
52494;SDS011;38405;53.212;5.660;2023-04-21T11:23:54;10.18;;;7.68;;
52494;SDS011;38405;53.212;5.660;2023-04-21T11:29:07;18.33;;;8.23;;
52494;SDS011;38405;53.212;5.660;2023-04-21T11:31:35;14.27;;;8.65;;
52494;SDS011;38405;53.212;5.660;2023-04-21T11:34:01;14.02;;;8.80;;
52494;SDS011;38405;53.212;5.660;2023-04-21T11:36:31;13.80;;;9.23;;
52494;SDS011;38405;53.212;5.660;2023-04-21T11:38:57;10.90;;;8.00;;
52494;SDS011;38405;53.212;5.660;2023-04-21T11:41:23;18.70;;;8.88;;
52494;SDS011;38405;53.212;5.660;2023-04-21T11:43:52;17.45;;;9.38;;
52494;SDS011;38405;53.212;5.660;2023-04-21T11:46:21;10.43;;;8.27;;
52494;SDS011;38405;53.212;5.660;2023-04-21T11:48:57;17.30;;;8.75;;
52494;SDS011;38405;53.212;5.660;2023-04-21T11:51:27;13.38;;;8.80;;
52494;SDS011;38405;53.212;5.660;2023-04-21T11:54:04;13.80;;;9.00;;
52494;SDS011;38405;53.212;5.660;2023-04-21T11:56:35;13.60;;;8.63;;
52494;SDS011;38405;53.212;5.660;2023-04-21T11:59:14;15.45;;;8.70;;
52494;SDS011;38405;53.212;5.660;2023-04-21T12:01:44;14.25;;;8.15;;
52494;SDS011;38405;53.212;5.660;2023-04-21T12:04:15;15.02;;;9.00;;
52494;SDS011;38405;53.212;5.660;2023-04-21T12:06:42;13.52;;;8.18;;
52494;SDS011;38405;53.212;5.660;2023-04-21T12:09:14;13.77;;;9.07;;
52494;SDS011;38405;53.212;5.660;2023-04-21T12:11:41;15.75;;;8.68;;
52494;SDS011;38405;53.212;5.660;2023-04-21T12:14:07;15.57;;;7.90;;
52494;SDS011;38405;53.212;5.660;2023-04-21T12:16:34;15.02;;;8.68;;
52494;SDS011;38405;53.212;5.660;2023-04-21T12:19:01;31.45;;;8.77;;
52494;SDS011;38405;53.212;5.660;2023-04-21T12:21:27;11.57;;;7.97;;
52494;SDS011;38405;53.212;5.660;2023-04-21T12:23:54;11.52;;;8.15;;
52494;SDS011;38405;53.212;5.660;2023-04-21T12:26:21;14.80;;;8.15;;
52494;SDS011;38405;53.212;5.660;2023-04-21T12:28:50;18.50;;;8.13;;
52494;SDS011;38405;53.212;5.660;2023-04-21T12:31:17;14.10;;;8.70;;
52494;SDS011;38405;53.212;5.660;2023-04-21T12:33:42;10.05;;;7.45;;
52494;SDS011;38405;53.212;5.660;2023-04-21T12:36:08;9.95;;;6.90;;
52494;SDS011;38405;53.212;5.660;2023-04-21T12:38:34;13.32;;;7.72;;
52494;SDS011;38405;53.212;5.660;2023-04-21T12:40:59;16.10;;;7.25;;
52494;SDS011;38405;53.212;5.660;2023-04-21T12:43:25;23.58;;;7.40;;
52494;SDS011;38405;53.212;5.660;2023-04-21T12:45:51;12.82;;;7.65;;
52494;SDS011;38405;53.212;5.660;2023-04-21T12:48:17;13.77;;;7.40;;
52494;SDS011;38405;53.212;5.660;2023-04-21T12:50:44;11.43;;;6.97;;
52494;SDS011;38405;53.212;5.660;2023-04-21T12:53:13;16.40;;;7.25;;
52494;SDS011;38405;53.212;5.660;2023-04-21T12:55:39;13.77;;;7.00;;
52494;SDS011;38405;53.212;5.660;2023-04-21T12:58:04;7.45;;;5.75;;
52494;SDS011;38405;53.212;5.660;2023-04-21T13:00:30;14.52;;;6.82;;
52494;SDS011;38405;53.212;5.660;2023-04-21T13:02:57;13.65;;;6.68;;
52494;SDS011;38405;53.212;5.660;2023-04-21T13:05:22;11.15;;;6.20;;
52494;SDS011;38405;53.212;5.660;2023-04-21T13:07:48;14.35;;;6.50;;
52494;SDS011;38405;53.212;5.660;2023-04-21T13:10:14;8.85;;;5.45;;
52494;SDS011;38405;53.212;5.660;2023-04-21T13:12:40;12.40;;;5.60;;
52494;SDS011;38405;53.212;5.660;2023-04-21T13:15:06;10.13;;;5.10;;
52494;SDS011;38405;53.212;5.660;2023-04-21T13:17:32;18.08;;;5.78;;
52494;SDS011;38405;53.212;5.660;2023-04-21T13:19:58;6.80;;;4.93;;
52494;SDS011;38405;53.212;5.660;2023-04-21T13:22:23;7.22;;;4.75;;
52494;SDS011;38405;53.212;5.660;2023-04-21T13:24:49;14.27;;;4.57;;
52494;SDS011;38405;53.212;5.660;2023-04-21T13:27:15;9.55;;;4.75;;
52494;SDS011;38405;53.212;5.660;2023-04-21T13:29:41;7.32;;;4.68;;
52494;SDS011;38405;53.212;5.660;2023-04-21T13:32:06;8.55;;;4.63;;
52494;SDS011;38405;53.212;5.660;2023-04-21T13:34:33;6.97;;;4.43;;
52494;SDS011;38405;53.212;5.660;2023-04-21T13:36:59;10.20;;;5.00;;
52494;SDS011;38405;53.212;5.660;2023-04-21T13:39:25;14.73;;;5.05;;
52494;SDS011;38405;53.212;5.660;2023-04-21T13:41:51;10.80;;;5.30;;
52494;SDS011;38405;53.212;5.660;2023-04-21T13:44:18;14.20;;;4.78;;
52494;SDS011;38405;53.212;5.660;2023-04-21T13:46:45;9.40;;;5.05;;
52494;SDS011;38405;53.212;5.660;2023-04-21T13:49:11;9.68;;;4.57;;
52494;SDS011;38405;53.212;5.660;2023-04-21T13:51:37;9.98;;;4.70;;
52494;SDS011;38405;53.212;5.660;2023-04-21T13:54:03;15.88;;;4.82;;
52494;SDS011;38405;53.212;5.660;2023-04-21T13:56:29;14.70;;;4.75;;
52494;SDS011;38405;53.212;5.660;2023-04-21T13:58:55;11.43;;;5.32;;
52494;SDS011;38405;53.212;5.660;2023-04-21T14:01:21;12.00;;;6.30;;
52494;SDS011;38405;53.212;5.660;2023-04-21T14:03:46;14.80;;;7.72;;
52494;SDS011;38405;53.212;5.660;2023-04-21T14:06:12;11.98;;;8.63;;
52494;SDS011;38405;53.212;5.660;2023-04-21T14:08:38;12.85;;;8.25;;
52494;SDS011;38405;53.212;5.660;2023-04-21T14:11:03;11.73;;;8.63;;
52494;SDS011;38405;53.212;5.660;2023-04-21T14:13:30;17.35;;;10.20;;
52494;SDS011;38405;53.212;5.660;2023-04-21T14:16:01;16.55;;;10.30;;
52494;SDS011;38405;53.212;5.660;2023-04-21T14:18:36;17.77;;;11.27;;
52494;SDS011;38405;53.212;5.660;2023-04-21T14:21:08;14.55;;;10.98;;
52494;SDS011;38405;53.212;5.660;2023-04-21T14:23:33;19.80;;;12.90;;
52494;SDS011;38405;53.212;5.660;2023-04-21T14:25:59;15.52;;;11.65;;
52494;SDS011;38405;53.212;5.660;2023-04-21T14:28:25;21.90;;;12.68;;
52494;SDS011;38405;53.212;5.660;2023-04-21T14:30:51;21.58;;;12.32;;
52494;SDS011;38405;53.212;5.660;2023-04-21T14:33:16;14.13;;;11.07;;
52494;SDS011;38405;53.212;5.660;2023-04-21T14:35:42;14.60;;;11.23;;
52494;SDS011;38405;53.212;5.660;2023-04-21T14:38:07;20.98;;;12.32;;
52494;SDS011;38405;53.212;5.660;2023-04-21T14:40:33;15.15;;;10.93;;